createdAt,value
2024-01-20T00:00:23.527Z,101005.47
2024-01-20T00:02:50.210Z,101010.63
2024-01-20T00:05:17.314Z,101005.41
2024-01-20T00:07:44.683Z,101010.56
2024-01-20T00:10:13.294Z,101007.97
2024-01-20T00:12:42.203Z,101018.28
2024-01-20T00:15:10.045Z,101025.19
2024-01-20T00:17:38.840Z,101032.06
2024-01-20T00:20:06.254Z,101031.22
2024-01-20T00:22:34.021Z,101030.38
2024-01-20T00:25:02.084Z,101031.22
2024-01-20T00:27:29.516Z,101031.19
2024-01-20T00:29:56.130Z,101026.84
2024-01-20T00:32:22.879Z,101028.56
2024-01-20T00:34:59.741Z,101041.47
2024-01-20T00:37:33.743Z,101039.72
2024-01-20T00:40:00.218Z,101040.56
2024-01-20T00:42:26.782Z,101040.56
2024-01-20T00:44:53.239Z,101045.66
2024-01-20T00:47:20.191Z,101038.72
2024-01-20T00:49:48.515Z,101040.41
2024-01-20T00:52:16.799Z,101036.97
2024-01-20T00:54:43.505Z,101050.75
2024-01-20T00:57:10.354Z,101041.25
2024-01-20T00:59:36.872Z,101038.63
2024-01-20T01:02:04.120Z,101041.22
2024-01-20T01:04:30.665Z,101038.63
2024-01-20T01:06:57.274Z,101036.91
2024-01-20T01:09:24.392Z,101048.16
2024-01-20T01:11:50.909Z,101045.56
2024-01-20T01:14:17.488Z,101042.16
2024-01-20T01:16:44.560Z,101043.81
2024-01-20T01:19:11.114Z,101053.28
2024-01-20T01:21:37.940Z,101059.28
2024-01-20T01:24:04.835Z,101055.81
2024-01-20T01:26:33.403Z,101054.91
2024-01-20T01:29:00.501Z,101061.81
2024-01-20T01:31:27.286Z,101061.72
2024-01-20T01:33:53.914Z,101071.22
2024-01-20T01:36:21.037Z,101072.97
2024-01-20T01:38:47.996Z,101078.97
2024-01-20T01:41:14.611Z,101074.59
2024-01-20T01:43:41.311Z,101072.75
2024-01-20T01:46:08.025Z,101081.34
2024-01-20T01:48:35.097Z,101079.59
2024-01-20T01:51:04.354Z,101075.28
2024-01-20T01:53:33.022Z,101077.91
2024-01-20T01:56:00.930Z,101090.72
2024-01-20T01:58:28.328Z,101088.06
2024-01-20T02:00:55.223Z,101094.06
2024-01-20T02:03:22.297Z,101094.91
2024-01-20T02:05:49.054Z,101089.72
2024-01-20T02:08:15.794Z,101086.22
2024-01-20T02:10:43.822Z,101082.75
2024-01-20T02:13:11.536Z,101095.69
2024-01-20T02:15:38.287Z,101090.44
2024-01-20T02:18:04.977Z,101093.00
2024-01-20T02:20:31.518Z,101100.72
2024-01-20T02:22:58.371Z,101102.41
2024-01-20T02:25:25.028Z,101101.47
2024-01-20T02:27:51.555Z,101098.88
2024-01-20T02:30:18.067Z,101101.47
2024-01-20T02:32:44.773Z,101098.84
2024-01-20T02:35:11.841Z,101091.94
2024-01-20T02:37:38.314Z,101091.03
2024-01-20T02:40:05.537Z,101094.41
2024-01-20T02:42:32.008Z,101094.31
2024-01-20T02:44:58.629Z,101102.03
2024-01-20T02:47:25.890Z,101102.75
2024-01-20T02:49:52.580Z,101103.53
2024-01-20T02:52:19.069Z,101107.84
2024-01-20T02:54:45.499Z,101113.00
2024-01-20T02:57:12.021Z,101112.91
2024-01-20T02:59:38.656Z,101121.47
2024-01-20T03:02:05.168Z,101123.16
2024-01-20T03:04:31.742Z,101130.91
2024-01-20T03:06:58.314Z,101130.97
2024-01-20T03:09:24.870Z,101125.84
2024-01-20T03:11:51.423Z,101124.19
2024-01-20T03:14:18.165Z,101120.81
2024-01-20T03:16:44.797Z,101120.88
2024-01-20T03:19:11.494Z,101132.19
2024-01-20T03:21:37.971Z,101118.50
2024-01-20T03:24:04.734Z,101110.00
2024-01-20T03:26:31.304Z,101109.25
2024-01-20T03:28:57.764Z,101101.47
2024-01-20T03:31:26.486Z,101104.03
2024-01-20T03:33:53.043Z,101099.72
2024-01-20T03:36:19.682Z,101107.34
2024-01-20T03:38:46.453Z,101118.44
2024-01-20T03:41:12.908Z,101118.31
2024-01-20T03:43:39.459Z,101126.84
2024-01-20T03:46:06.300Z,101125.91
2024-01-20T03:48:33.676Z,101134.41
2024-01-20T03:51:00.311Z,101144.69
2024-01-20T03:53:26.895Z,101144.59
2024-01-20T03:55:53.737Z,101147.97
2024-01-20T03:58:20.369Z,101142.66
2024-01-20T04:00:47.047Z,101141.78
2024-01-20T04:03:13.709Z,101156.38
2024-01-20T04:05:41.723Z,101153.72
2024-01-20T04:08:08.225Z,101158.88
2024-01-20T04:10:34.876Z,101167.38
2024-01-20T04:13:01.406Z,101171.63
2024-01-20T04:15:28.306Z,101164.66
2024-01-20T04:17:55.153Z,101166.28
2024-01-20T04:20:21.777Z,101165.44
2024-01-20T04:22:48.347Z,101163.59
2024-01-20T04:25:14.862Z,101165.28
2024-01-20T04:27:41.895Z,101159.09
2024-01-20T04:30:10.222Z,101165.13
2024-01-20T04:32:37.354Z,101161.53
2024-01-20T04:35:07.352Z,101158.88
2024-01-20T04:37:34.198Z,101158.63
2024-01-20T04:40:02.457Z,101165.41
2024-01-20T04:42:29.013Z,101171.22
2024-01-20T04:44:55.878Z,101175.19
2024-01-20T04:47:22.599Z,101178.53
2024-01-20T04:49:54.645Z,101182.44
2024-01-20T04:52:22.246Z,101191.84
2024-01-20T04:54:48.718Z,101177.03
2024-01-20T04:57:15.332Z,101171.75
2024-01-20T04:59:42.007Z,101176.06
2024-01-20T05:02:08.504Z,101168.31
2024-01-20T05:04:35.101Z,101164.78
2024-01-20T05:07:01.717Z,101168.22
2024-01-20T05:09:28.356Z,101180.22
2024-01-20T05:11:54.982Z,101168.19
2024-01-20T05:14:21.966Z,101182.72
2024-01-20T05:16:48.512Z,101192.97
2024-01-20T05:19:15.423Z,101205.50
2024-01-20T05:21:42.095Z,101201.06
2024-01-20T05:24:08.694Z,101210.41
2024-01-20T05:26:35.309Z,101206.94
2024-01-20T05:29:01.844Z,101206.06
2024-01-20T05:31:32.824Z,101203.47
2024-01-20T05:34:00.508Z,101209.53
2024-01-20T05:36:27.631Z,101198.34
2024-01-20T05:38:54.396Z,101201.72
2024-01-20T05:41:21.101Z,101199.00
2024-01-20T05:43:48.057Z,101199.06
2024-01-20T05:46:14.550Z,101212.66
2024-01-20T05:48:41.222Z,101214.41
2024-01-20T05:51:08.205Z,101222.03
2024-01-20T05:53:35.224Z,101234.06
2024-01-20T05:56:01.748Z,101233.28
2024-01-20T05:58:28.269Z,101245.28
2024-01-20T06:00:55.497Z,101261.56
2024-01-20T06:03:22.631Z,101267.56
2024-01-20T06:05:50.968Z,101264.53
2024-01-20T06:08:17.445Z,101258.81
2024-01-20T06:10:45.049Z,101258.34
2024-01-20T06:13:11.554Z,101263.00
2024-01-20T06:15:38.391Z,101268.59
2024-01-20T06:18:05.378Z,101256.91
2024-01-20T06:20:31.963Z,101259.84
2024-01-20T06:22:58.420Z,101263.59
2024-01-20T06:25:24.978Z,101255.25
2024-01-20T06:27:51.495Z,101256.34
2024-01-20T06:30:18.291Z,101272.00
2024-01-20T06:32:45.031Z,101272.97
2024-01-20T06:35:11.992Z,101280.09
2024-01-20T06:37:38.464Z,101285.41
2024-01-20T06:40:05.423Z,101274.31
2024-01-20T06:42:32.046Z,101279.63
2024-01-20T06:45:00.929Z,101285.69
2024-01-20T06:47:27.913Z,101279.75
2024-01-20T06:49:54.835Z,101286.72
2024-01-20T06:52:21.781Z,101294.59
2024-01-20T06:54:49.620Z,101301.59
2024-01-20T06:57:16.192Z,101295.66
2024-01-20T06:59:43.266Z,101295.69
2024-01-20T07:02:10.023Z,101294.94
2024-01-20T07:04:36.589Z,101300.16
2024-01-20T07:07:03.954Z,101300.19
2024-01-20T07:09:30.602Z,101307.16
2024-01-20T07:11:58.995Z,101318.38
2024-01-20T07:14:26.828Z,101322.81
2024-01-20T07:16:54.065Z,101320.25
2024-01-20T07:19:20.746Z,101320.28
2024-01-20T07:21:47.590Z,101332.44
2024-01-20T07:24:14.144Z,101328.16
2024-01-20T07:26:41.542Z,101330.56
2024-01-20T07:29:08.648Z,101339.94
2024-01-20T07:31:35.162Z,101345.09
2024-01-20T07:34:02.158Z,101339.94
2024-01-20T07:36:28.741Z,101344.28
2024-01-20T07:38:55.388Z,101345.09
2024-01-20T07:41:22.028Z,101350.38
2024-01-20T07:43:48.515Z,101359.88
2024-01-20T07:46:15.063Z,101358.13
2024-01-20T07:48:41.951Z,101358.13
2024-01-20T07:51:09.699Z,101368.63
2024-01-20T07:53:36.326Z,101366.13
2024-01-20T07:56:02.804Z,101358.31
2024-01-20T07:58:29.438Z,101364.41
2024-01-20T08:00:55.966Z,101360.28
2024-01-20T08:03:22.443Z,101362.97
2024-01-20T08:05:49.023Z,101366.53
2024-01-20T08:08:15.507Z,101373.38
2024-01-20T08:10:42.026Z,101361.25
2024-01-20T08:13:08.471Z,101371.59
2024-01-20T08:15:34.995Z,101364.78
2024-01-20T08:18:01.773Z,101376.88
2024-01-20T08:20:28.581Z,101369.84
2024-01-20T08:22:55.148Z,101380.94
2024-01-20T08:25:22.398Z,101377.50
2024-01-20T08:27:49.250Z,101379.25
2024-01-20T08:30:15.789Z,101395.78
2024-01-20T08:32:44.857Z,101401.78
2024-01-20T08:35:12.513Z,101399.16
2024-01-20T08:37:39.027Z,101398.28
2024-01-20T08:40:06.093Z,101405.34
2024-01-20T08:42:33.637Z,101401.22
2024-01-20T08:45:00.775Z,101412.53
2024-01-20T08:47:28.385Z,101420.41
2024-01-20T08:49:54.957Z,101418.81
2024-01-20T08:52:21.503Z,101418.91
2024-01-20T08:54:48.348Z,101421.59
2024-01-20T08:57:15.050Z,101406.78
2024-01-20T08:59:41.560Z,101412.56
2024-01-20T09:02:08.353Z,101416.72
2024-01-20T09:04:35.682Z,101414.13
2024-01-20T09:07:02.680Z,101413.44
2024-01-20T09:09:29.337Z,101426.50
2024-01-20T09:11:55.925Z,101422.19
2024-01-20T09:14:22.429Z,101421.19
2024-01-20T09:16:49.661Z,101429.66
2024-01-20T09:19:16.898Z,101432.22
2024-01-20T09:21:46.507Z,101436.53
2024-01-20T09:24:13.079Z,101445.09
2024-01-20T09:26:41.073Z,101448.81
2024-01-20T09:29:09.371Z,101444.59
2024-01-20T09:31:36.119Z,101435.19
2024-01-20T09:34:02.690Z,101438.75
2024-01-20T09:36:29.422Z,101436.94
2024-01-20T09:38:57.204Z,101443.81
2024-01-20T09:41:24.846Z,101442.19
2024-01-20T09:43:51.548Z,101443.22
2024-01-20T09:46:18.584Z,101441.56
2024-01-20T09:48:46.078Z,101443.22
2024-01-20T09:51:13.005Z,101444.91
2024-01-20T09:53:39.813Z,101444.91
2024-01-20T09:56:06.993Z,101438.97
2024-01-20T09:58:36.228Z,101441.69
2024-01-20T10:01:04.046Z,101438.31
2024-01-20T10:03:33.918Z,101427.16
2024-01-20T10:06:00.745Z,101428.16
2024-01-20T10:08:27.508Z,101428.28
2024-01-20T10:11:04.726Z,101423.22
2024-01-20T10:13:31.923Z,101422.44
2024-01-20T10:15:58.844Z,101429.41
2024-01-20T10:18:25.557Z,101430.28
2024-01-20T10:21:05.630Z,101438.06
2024-01-20T10:23:37.036Z,101444.13
2024-01-20T10:26:05.382Z,101447.53
2024-01-20T10:28:32.176Z,101447.47
2024-01-20T10:30:58.782Z,101443.13
2024-01-20T10:33:25.555Z,101444.03
2024-01-20T10:35:53.158Z,101449.25
2024-01-20T10:38:21.956Z,101441.59
2024-01-20T10:40:53.988Z,101440.00
2024-01-20T10:43:21.281Z,101428.81
2024-01-20T10:46:00.992Z,101432.25
2024-01-20T10:48:29.994Z,101419.38
2024-01-20T10:51:00.024Z,101420.34
2024-01-20T10:53:27.311Z,101412.66
2024-01-20T10:55:54.382Z,101420.44
2024-01-20T10:58:24.434Z,101423.06
2024-01-20T11:00:51.702Z,101419.53
2024-01-20T11:03:18.664Z,101416.91
2024-01-20T11:05:48.552Z,101416.84
2024-01-20T11:08:24.977Z,101405.63
2024-01-20T11:10:53.254Z,101405.72
2024-01-20T11:13:19.777Z,101406.66
2024-01-20T11:15:51.431Z,101403.31
2024-01-20T11:18:19.174Z,101403.44
2024-01-20T11:21:05.022Z,101406.09
2024-01-20T11:23:31.590Z,101409.53
2024-01-20T11:25:59.201Z,101405.25
2024-01-20T11:28:35.770Z,101414.69
2024-01-20T11:31:02.270Z,101403.34
2024-01-20T11:33:31.724Z,101405.09
2024-01-20T11:35:58.432Z,101398.88
2024-01-20T11:38:25.421Z,101404.88
2024-01-20T11:41:01.624Z,101398.78
2024-01-20T11:43:28.648Z,101407.50
2024-01-20T11:45:56.262Z,101399.06
2024-01-20T11:48:23.211Z,101401.81
2024-01-20T11:50:50.691Z,101389.81
2024-01-20T11:53:17.342Z,101400.22
2024-01-20T11:55:59.434Z,101388.13
2024-01-20T11:58:29.326Z,101395.06
2024-01-20T12:00:56.589Z,101401.16
2024-01-20T12:03:23.729Z,101396.84
2024-01-20T12:05:51.341Z,101396.88
2024-01-20T12:08:18.601Z,101396.00
2024-01-20T12:10:49.119Z,101399.44
2024-01-20T12:13:17.636Z,101398.56
2024-01-20T12:15:44.844Z,101396.00
2024-01-20T12:18:11.830Z,101402.88
2024-01-20T12:20:38.612Z,101392.47
2024-01-20T12:23:05.183Z,101389.00
2024-01-20T12:25:34.142Z,101381.28
2024-01-20T12:28:01.009Z,101389.91
2024-01-20T12:30:30.608Z,101387.31
2024-01-20T12:32:58.034Z,101379.59
2024-01-20T12:35:24.838Z,101384.88
2024-01-20T12:37:51.450Z,101381.34
2024-01-20T12:40:19.706Z,101373.59
2024-01-20T12:42:46.364Z,101371.88
2024-01-20T12:45:13.204Z,101353.75
2024-01-20T12:47:40.027Z,101362.44
2024-01-20T12:50:07.587Z,101355.50
2024-01-20T12:52:34.297Z,101343.38
2024-01-20T12:55:00.980Z,101352.00
2024-01-20T12:57:27.562Z,101343.38
2024-01-20T12:59:54.727Z,101345.16
2024-01-20T13:02:21.456Z,101341.72
2024-01-20T13:04:48.096Z,101337.38
2024-01-20T13:07:15.355Z,101331.34
2024-01-20T13:09:42.710Z,101326.19
2024-01-20T13:12:09.570Z,101321.06
2024-01-20T13:14:36.434Z,101317.66
2024-01-20T13:17:03.792Z,101320.31
2024-01-20T13:19:30.848Z,101322.91
2024-01-20T13:21:57.983Z,101322.06
2024-01-20T13:24:24.637Z,101316.88
2024-01-20T13:26:51.346Z,101316.03
2024-01-20T13:29:17.993Z,101324.66
2024-01-20T13:31:44.514Z,101326.41
2024-01-20T13:34:11.372Z,101321.09
2024-01-20T13:36:38.698Z,101312.41
2024-01-20T13:39:06.149Z,101326.25
2024-01-20T13:41:34.664Z,101323.63
2024-01-20T13:44:01.305Z,101327.13
2024-01-20T13:46:27.810Z,101322.84
2024-01-20T13:48:54.554Z,101321.22
2024-01-20T13:51:22.845Z,101319.47
2024-01-20T13:53:49.885Z,101310.78
2024-01-20T13:56:16.415Z,101311.59
2024-01-20T13:58:42.950Z,101309.63
2024-01-20T14:01:09.714Z,101312.09
2024-01-20T14:03:36.492Z,101309.50
2024-01-20T14:06:04.041Z,101317.44
2024-01-20T14:08:30.777Z,101317.53
2024-01-20T14:10:57.401Z,101312.34
2024-01-20T14:13:24.036Z,101312.38
2024-01-20T14:15:52.788Z,101311.56
2024-01-20T14:18:19.995Z,101299.53
2024-01-20T14:20:46.567Z,101309.06
2024-01-20T14:23:13.415Z,101310.81
2024-01-20T14:25:39.995Z,101324.59
2024-01-20T14:28:06.560Z,101317.66
2024-01-20T14:30:33.638Z,101320.31
2024-01-20T14:33:00.251Z,101323.81
2024-01-20T14:35:27.097Z,101330.56
2024-01-20T14:37:54.122Z,101327.00
2024-01-20T14:40:20.577Z,101329.66
2024-01-20T14:42:47.237Z,101325.38
2024-01-20T14:45:14.848Z,101328.00
2024-01-20T14:47:41.453Z,101328.88
2024-01-20T14:50:08.700Z,101332.28
2024-01-20T14:52:35.294Z,101334.59
2024-01-20T14:55:01.860Z,101334.56
2024-01-20T14:57:28.549Z,101331.06
2024-01-20T14:59:55.068Z,101333.66
2024-01-20T15:02:21.907Z,101336.19
2024-01-20T15:04:48.397Z,101337.09
2024-01-20T15:07:14.947Z,101336.31
2024-01-20T15:09:42.450Z,101343.25
2024-01-20T15:12:09.558Z,101338.00
2024-01-20T15:14:36.212Z,101337.16
2024-01-20T15:17:02.673Z,101339.69
2024-01-20T15:19:29.326Z,101342.19
2024-01-20T15:21:56.037Z,101337.94
2024-01-20T15:24:22.609Z,101346.63
2024-01-20T15:26:49.118Z,101343.16
2024-01-20T15:29:15.944Z,101347.44
2024-01-20T15:31:42.770Z,101362.97
2024-01-20T15:34:09.430Z,101363.81
2024-01-20T15:36:36.128Z,101356.91
2024-01-20T15:39:03.117Z,101369.91
2024-01-20T15:41:29.798Z,101363.03
2024-01-20T15:43:56.418Z,101368.25
2024-01-20T15:46:23.362Z,101364.00
2024-01-20T15:48:49.911Z,101358.88
2024-01-20T15:51:17.073Z,101349.41
2024-01-20T15:53:45.840Z,101356.38
2024-01-20T15:56:14.718Z,101353.81
2024-01-20T15:58:41.667Z,101357.25
2024-01-20T16:01:08.422Z,101342.41
2024-01-20T16:03:35.142Z,101347.53
2024-01-20T16:06:03.215Z,101343.09
2024-01-20T16:08:29.788Z,101343.84
2024-01-20T16:10:56.245Z,101345.44
2024-01-20T16:13:22.743Z,101345.28
2024-01-20T16:15:49.418Z,101348.63
2024-01-20T16:18:16.376Z,101348.44
2024-01-20T16:20:43.053Z,101336.13
2024-01-20T16:23:10.397Z,101342.81
2024-01-20T16:25:36.953Z,101332.16
2024-01-20T16:28:03.620Z,101318.22
2024-01-20T16:30:32.118Z,101328.66
2024-01-20T16:32:58.878Z,101324.34
2024-01-20T16:35:25.380Z,101321.69
2024-01-20T16:37:51.979Z,101324.31
2024-01-20T16:40:18.496Z,101311.47
2024-01-20T16:42:45.554Z,101305.53
2024-01-20T16:45:12.211Z,101305.59
2024-01-20T16:47:38.944Z,101309.94
2024-01-20T16:50:05.894Z,101310.72
2024-01-20T16:52:32.396Z,101308.13
2024-01-20T16:55:13.822Z,101313.19
2024-01-20T16:57:42.387Z,101318.44
2024-01-20T17:00:09.755Z,101309.81
2024-01-20T17:02:36.508Z,101311.59
2024-01-20T17:05:03.143Z,101312.47
2024-01-20T17:07:29.683Z,101311.69
2024-01-20T17:09:56.263Z,101311.78
2024-01-20T17:12:24.738Z,101304.03
2024-01-20T17:14:51.434Z,101317.94
2024-01-20T17:17:17.926Z,101319.75
2024-01-20T17:19:44.824Z,101326.69
2024-01-20T17:22:11.428Z,101331.06
2024-01-20T17:24:38.638Z,101337.13
2024-01-20T17:27:05.608Z,101334.56
2024-01-20T17:29:33.109Z,101327.66
2024-01-20T17:32:02.606Z,101333.78
2024-01-20T17:34:29.369Z,101327.75
2024-01-20T17:36:56.632Z,101340.75
2024-01-20T17:39:25.600Z,101346.72
2024-01-20T17:41:53.270Z,101349.41
2024-01-20T17:44:21.062Z,101350.19
2024-01-20T17:46:47.797Z,101340.63
2024-01-20T17:49:14.369Z,101348.41
2024-01-20T17:51:41.983Z,101351.81
2024-01-20T17:54:08.624Z,101347.41
2024-01-20T17:56:35.179Z,101351.81
2024-01-20T17:59:01.856Z,101339.72
2024-01-20T18:01:29.267Z,101338.06
2024-01-20T18:03:56.019Z,101332.06
2024-01-20T18:06:22.883Z,101326.03
2024-01-20T18:08:49.674Z,101332.03
2024-01-20T18:11:17.010Z,101321.63
2024-01-20T18:13:43.867Z,101314.69
2024-01-20T18:16:10.774Z,101319.78
2024-01-20T18:18:37.527Z,101309.97
2024-01-20T18:21:04.107Z,101319.34
2024-01-20T18:23:30.768Z,101309.00
2024-01-20T18:25:57.247Z,101306.34
2024-01-20T18:28:24.801Z,101298.56
2024-01-20T18:30:52.711Z,101303.66
2024-01-20T18:33:19.926Z,101302.63
2024-01-20T18:35:46.676Z,101320.66
2024-01-20T18:38:13.321Z,101324.00
2024-01-20T18:40:40.401Z,101332.56
2024-01-20T18:43:06.916Z,101337.69
2024-01-20T18:45:33.610Z,101339.47
2024-01-20T18:48:00.332Z,101339.59
2024-01-20T18:50:27.268Z,101339.63
2024-01-20T18:52:54.873Z,101344.91
2024-01-20T18:55:21.491Z,101352.75
2024-01-20T18:57:47.986Z,101356.31
2024-01-20T19:00:14.709Z,101352.91
2024-01-20T19:02:41.384Z,101350.38
2024-01-20T19:05:08.041Z,101346.84
2024-01-20T19:07:34.609Z,101355.47
2024-01-20T19:10:02.472Z,101357.22
2024-01-20T19:12:29.016Z,101360.72
2024-01-20T19:14:58.506Z,101360.75
2024-01-20T19:17:28.334Z,101354.72
2024-01-20T19:19:54.939Z,101342.59
2024-01-20T19:22:24.187Z,101341.78
2024-01-20T19:24:50.823Z,101361.75
2024-01-20T19:27:17.414Z,101364.34
2024-01-20T19:29:44.229Z,101363.50
2024-01-20T19:32:10.787Z,101357.41
2024-01-20T19:34:37.421Z,101353.91
2024-01-20T19:37:04.608Z,101355.59
2024-01-20T19:39:32.546Z,101346.94
2024-01-20T19:41:59.027Z,101342.63
2024-01-20T19:44:25.626Z,101339.97
2024-01-20T19:46:52.142Z,101342.53
2024-01-20T19:49:24.975Z,101350.25
2024-01-20T19:51:51.659Z,101347.59
2024-01-20T19:54:18.186Z,101347.56
2024-01-20T19:56:45.280Z,101351.03
2024-01-20T19:59:14.229Z,101351.06
2024-01-20T20:01:45.271Z,101344.09
2024-01-20T20:04:16.597Z,101332.78
2024-01-20T20:06:47.791Z,101334.44
2024-01-20T20:09:16.054Z,101325.75
2024-01-20T20:11:43.689Z,101311.97
2024-01-20T20:14:11.128Z,101295.56
2024-01-20T20:16:37.671Z,101298.84
2024-01-20T20:19:04.713Z,101285.81
2024-01-20T20:21:34.220Z,101287.28
2024-01-20T20:24:01.372Z,101279.88
2024-01-20T20:26:28.694Z,101282.22
2024-01-20T20:28:55.359Z,101284.06
2024-01-20T20:31:23.358Z,101282.50
2024-01-20T20:33:50.490Z,101280.94
2024-01-20T20:36:20.080Z,101284.53
2024-01-20T20:38:47.137Z,101275.13
2024-01-20T20:41:13.670Z,101268.34
2024-01-20T20:43:40.124Z,101263.25
2024-01-20T20:46:06.833Z,101255.53
2024-01-20T20:48:33.481Z,101264.28
2024-01-20T20:50:59.999Z,101259.03
2024-01-20T20:53:26.689Z,101262.47
2024-01-20T20:55:53.200Z,101263.38
2024-01-20T20:58:19.740Z,101249.53
2024-01-20T21:00:46.362Z,101251.25
2024-01-20T21:03:13.516Z,101243.44
2024-01-20T21:05:40.215Z,101241.69
2024-01-20T21:08:07.184Z,101240.00
2024-01-20T21:10:33.643Z,101239.00
2024-01-20T21:13:00.600Z,101240.69
2024-01-20T21:15:27.236Z,101252.69
2024-01-20T21:17:53.863Z,101244.94
2024-01-20T21:20:20.624Z,101241.44
2024-01-20T21:22:47.167Z,101237.09
2024-01-20T21:25:13.661Z,101250.03
2024-01-20T21:27:40.240Z,101246.53
2024-01-20T21:30:08.324Z,101250.91
2024-01-20T21:32:34.907Z,101243.19
2024-01-20T21:35:01.596Z,101232.84
2024-01-20T21:37:28.397Z,101236.34
2024-01-20T21:39:54.961Z,101229.47
2024-01-20T21:42:21.859Z,101231.09
2024-01-20T21:44:48.658Z,101237.94
2024-01-20T21:47:15.207Z,101239.63
2024-01-20T21:49:41.809Z,101247.38
2024-01-20T21:52:09.245Z,101251.59
2024-01-20T21:54:35.910Z,101254.91
2024-01-20T21:57:02.505Z,101259.94
2024-01-20T21:59:28.962Z,101253.00
2024-01-20T22:01:55.726Z,101252.06
2024-01-20T22:04:22.449Z,101246.94
2024-01-20T22:06:51.010Z,101235.66
2024-01-20T22:09:17.689Z,101241.53
2024-01-20T22:11:44.409Z,101239.81
2024-01-20T22:14:10.923Z,101231.28
2024-01-20T22:16:37.500Z,101230.50
2024-01-20T22:19:04.074Z,101222.84
2024-01-20T22:21:30.941Z,101227.09
2024-01-20T22:23:57.478Z,101220.97
2024-01-20T22:26:24.003Z,101216.53
2024-01-20T22:28:50.646Z,101212.25
2024-01-20T22:31:17.160Z,101212.97
2024-01-20T22:33:43.860Z,101203.31
2024-01-20T22:36:10.537Z,101208.34
2024-01-20T22:38:37.371Z,101209.09
2024-01-20T22:41:05.628Z,101221.81
2024-01-20T22:43:32.563Z,101215.56
2024-01-20T22:45:59.242Z,101213.00
2024-01-20T22:48:26.254Z,101216.41
2024-01-20T22:50:55.475Z,101224.13
2024-01-20T22:53:21.997Z,101227.59
2024-01-20T22:55:48.450Z,101228.41
2024-01-20T22:58:14.911Z,101224.94
2024-01-20T23:00:41.852Z,101216.38
2024-01-20T23:03:08.697Z,101218.09
2024-01-20T23:05:35.313Z,101214.31
2024-01-20T23:08:01.927Z,101207.50
2024-01-20T23:10:28.410Z,101206.53
2024-01-20T23:12:54.981Z,101216.72
2024-01-20T23:15:21.530Z,101218.31
2024-01-20T23:17:48.096Z,101225.06
2024-01-20T23:20:15.719Z,101212.91
2024-01-20T23:22:42.458Z,101200.75
2024-01-20T23:25:10.246Z,101198.03
2024-01-20T23:27:37.230Z,101193.56
2024-01-20T23:30:04.352Z,101197.66
2024-01-20T23:32:30.985Z,101192.38
2024-01-20T23:34:57.776Z,101182.06
2024-01-20T23:37:24.265Z,101180.19
2024-01-20T23:39:50.808Z,101180.03
2024-01-20T23:42:17.454Z,101179.81
2024-01-20T23:44:43.966Z,101175.47
2024-01-20T23:47:10.829Z,101177.19
2024-01-20T23:49:37.456Z,101164.16
2024-01-20T23:52:04.961Z,101150.34
2024-01-20T23:54:31.692Z,101140.88
2024-01-20T23:56:58.184Z,101151.16
2024-01-20T23:59:24.759Z,101147.59
